Time;durP1;ratioP1;P1;durP2;ratioP2;P2;SDS_P1;SDS_P2;PMS_P1;PMS_P2;Temp;Humidity;BMP_temperature;BMP_pressure;BME280_temperature;BME280_humidity;BME280_pressure;Samples;Min_cycle;Max_cycle;Signal;HPM_P1;HPM_P2
2023/07/19 00:00:41;;;;;;;;;2.00;2.00;;;;;22.60;43.99;100800.41;5014376;28;45725;-78
2023/07/19 00:03:10;;;;;;;;;3.75;3.75;;;;;22.53;44.90;100798.50;5014607;28;45243;-81
2023/07/19 00:05:36;;;;;;;;;3.00;3.00;;;;;22.62;44.30;100816.50;5014207;28;46072;-78
2023/07/19 00:08:04;;;;;;;;;2.00;2.00;;;;;22.50;44.56;100796.06;5023757;28;45401;-77
2023/07/19 00:10:30;;;;;;;;;4.33;3.33;;;;;22.51;44.81;100808.63;5034660;28;45428;-81
2023/07/19 00:12:55;;;;;;;;;4.00;2.00;;;;;22.52;44.96;100822.00;5032823;28;45670;-75
2023/07/19 00:15:21;;;;;;;;;7.00;4.00;;;;;22.41;44.55;100792.47;5033755;28;45752;-80
2023/07/19 00:17:46;;;;;;;;;2.00;2.00;;;;;22.50;44.90;100820.47;5032628;28;45245;-79
2023/07/19 00:20:12;;;;;;;;;2.00;2.00;;;;;22.41;45.10;100835.84;5016138;28;45280;-78
2023/07/19 00:22:40;;;;;;;;;2.00;2.00;;;;;21.99;44.99;100768.69;5034083;28;45232;-79
2023/07/19 00:25:06;;;;;;;;;2.25;1.75;;;;;22.32;45.07;100818.66;5033851;28;45376;-80
2023/07/19 00:27:32;;;;;;;;;2.33;2.33;;;;;22.30;44.91;100820.66;5015280;27;45362;-77
2023/07/19 00:29:58;;;;;;;;;2.00;2.00;;;;;22.30;45.03;100820.66;5034167;28;45429;-77
2023/07/19 00:32:23;;;;;;;;;3.00;3.00;;;;;22.16;45.15;100812.25;5030755;27;45558;-78
2023/07/19 00:34:48;;;;;;;;;2.00;2.00;;;;;22.28;45.09;100833.53;5031637;28;46472;-77
2023/07/19 00:37:14;;;;;;;;;2.75;1.00;;;;;22.25;45.43;100831.09;5028501;28;45256;-77
2023/07/19 00:39:39;;;;;;;;;2.33;2.33;;;;;22.27;45.49;100833.69;5012929;28;45480;-78
2023/07/19 00:42:12;;;;;;;;;2.00;2.00;;;;;22.04;45.54;100801.59;5013683;28;45440;-77
2023/07/19 00:44:37;;;;;;;;;1.00;1.00;;;;;22.08;45.32;100800.31;5013307;28;46376;-77
2023/07/19 00:47:06;;;;;;;;;2.67;2.33;;;;;22.24;45.52;100823.97;5097399;27;45907;-79
2023/07/19 00:49:32;;;;;;;;;3.00;3.00;;;;;22.01;45.21;100787.53;5004612;27;45370;-79
2023/07/19 00:52:10;;;;;;;;;2.00;2.00;;;;;22.02;45.36;100797.34;5033765;28;45295;-78
2023/07/19 00:54:36;;;;;;;;;2.00;2.00;;;;;22.21;45.29;100826.16;5033344;28;46062;-78
2023/07/19 00:57:03;;;;;;;;;2.00;2.00;;;;;22.15;45.21;100819.50;5028416;28;45476;-78
2023/07/19 00:59:31;;;;;;;;;2.75;2.75;;;;;22.11;45.62;100811.84;5013917;28;45373;-78
2023/07/19 01:01:59;;;;;;;;;1.67;1.67;;;;;22.13;45.24;100816.09;5013822;28;45438;-78
2023/07/19 01:04:25;;;;;;;;;1.25;1.25;;;;;21.98;45.31;100801.34;5013331;28;45352;-78
2023/07/19 01:06:51;;;;;;;;;3.67;3.00;;;;;21.81;45.15;100775.97;5015432;28;45388;-78
2023/07/19 01:09:16;;;;;;;;;3.00;3.00;;;;;22.03;44.87;100805.31;5033371;28;45300;-78
2023/07/19 01:11:42;;;;;;;;;3.25;2.00;;;;;22.08;44.97;100813.00;5033441;28;45603;-77
2023/07/19 01:14:07;;;;;;;;;3.00;1.00;;;;;22.16;44.84;100823.06;5033050;28;45415;-78
2023/07/19 01:16:33;;;;;;;;;2.00;2.00;;;;;22.06;44.85;100813.16;5032588;28;45377;-77
2023/07/19 01:18:58;;;;;;;;;2.00;2.00;;;;;22.06;44.98;100823.16;5100191;27;45383;-80
2023/07/19 01:21:24;;;;;;;;;3.67;3.00;;;;;22.03;45.10;100823.44;5033381;28;45533;-77
2023/07/19 01:23:50;;;;;;;;;3.00;3.00;;;;;22.03;44.93;100820.72;5033049;28;46901;-77
2023/07/19 01:26:18;;;;;;;;;3.75;2.25;;;;;22.03;44.98;100826.13;5033001;27;45253;-77
2023/07/19 01:28:43;;;;;;;;;3.00;3.00;;;;;21.85;45.35;100814.41;5013465;28;45951;-77
2023/07/19 01:31:11;;;;;;;;;2.00;2.00;;;;;21.44;45.36;100755.28;5013238;28;45860;-77
2023/07/19 01:33:36;;;;;;;;;2.33;1.67;;;;;21.85;45.50;100828.81;5013737;28;46550;-77
2023/07/19 01:36:04;;;;;;;;;4.00;2.33;;;;;21.66;46.02;100808.16;5013324;27;45388;-78
2023/07/19 01:38:30;;;;;;;;;5.67;1.67;;;;;21.75;45.84;100828.91;5013066;28;45349;-81
2023/07/19 01:40:55;;;;;;;;;3.33;2.00;;;;;21.61;45.91;100815.84;5013216;27;45235;-77
2023/07/19 01:43:21;;;;;;;;;2.00;2.00;;;;;21.38;46.49;100790.22;5032876;28;46023;-79
2023/07/19 01:45:46;;;;;;;;;2.67;2.67;;;;;21.50;46.29;100821.50;5046133;28;45791;-79
2023/07/19 01:48:14;;;;;;;;;2.67;2.67;;;;;21.41;46.96;100816.97;5053030;28;45316;-76
2023/07/19 01:50:42;;;;;;;;;5.00;3.00;;;;;21.45;46.74;100837.31;5019333;28;45397;-78
2023/07/19 01:53:07;;;;;;;;;4.00;4.00;;;;;21.43;47.07;100851.00;5012778;28;45562;-75
2023/07/19 01:55:32;;;;;;;;;1.67;1.33;;;;;21.33;47.36;100839.38;5025987;27;54407;-79
2023/07/19 01:58:00;;;;;;;;;2.00;2.00;;;;;21.34;47.07;100841.06;5036238;28;45788;-77
2023/07/19 02:00:25;;;;;;;;;3.00;3.00;;;;;21.40;47.23;100855.88;5034404;28;45506;-77
2023/07/19 02:02:51;;;;;;;;;3.33;3.00;;;;;21.21;47.69;100830.56;5034216;28;46047;-77
2023/07/19 02:05:17;;;;;;;;;3.00;3.00;;;;;21.30;47.74;100845.06;5020131;28;45245;-80
2023/07/19 02:07:43;;;;;;;;;6.00;4.00;;;;;21.25;47.48;100835.69;5015807;28;45355;-77
2023/07/19 02:10:09;;;;;;;;;3.00;3.00;;;;;21.28;47.48;100849.78;5041737;28;45561;-77
2023/07/19 02:12:35;;;;;;;;;4.00;3.00;;;;;21.31;47.22;100856.75;5035643;28;45386;-78
2023/07/19 02:15:00;;;;;;;;;2.00;2.00;;;;;21.28;47.33;100857.06;5034054;28;45490;-78
2023/07/19 02:17:25;;;;;;;;;3.00;3.00;;;;;21.16;47.29;100830.16;5034170;28;45442;-78
2023/07/19 02:19:51;;;;;;;;;5.00;3.33;;;;;21.14;47.45;100839.41;5034083;28;45511;-76
2023/07/19 02:22:16;;;;;;;;;4.00;2.67;;;;;21.18;47.35;100863.31;5035205;28;45392;-77
2023/07/19 02:24:41;;;;;;;;;3.33;3.00;;;;;21.13;47.61;100851.25;5015770;28;45405;-76
2023/07/19 02:27:07;;;;;;;;;3.00;2.00;;;;;20.97;47.49;100841.06;5035569;28;45442;-79
2023/07/19 02:29:37;;;;;;;;;2.00;2.00;;;;;20.83;47.97;100819.88;5034335;28;45574;-79
2023/07/19 02:32:04;;;;;;;;;3.00;3.00;;;;;20.82;48.52;100823.56;5035076;28;46187;-78
2023/07/19 02:34:30;;;;;;;;;2.00;2.00;;;;;20.96;48.68;100863.66;5025865;28;45545;-81
2023/07/19 02:36:57;;;;;;;;;2.67;2.67;;;;;20.91;48.69;100865.97;4997590;28;45426;-77
2023/07/19 02:39:25;;;;;;;;;6.00;3.00;;;;;20.85;48.80;100848.47;5021490;28;45490;-77
2023/07/19 02:41:53;;;;;;;;;1.00;1.00;;;;;20.94;48.56;100860.25;5033635;28;47209;-80
2023/07/19 02:44:18;;;;;;;;;5.00;3.00;;;;;20.82;49.39;100859.56;5033593;28;45243;-78
2023/07/19 02:46:43;;;;;;;;;4.67;4.67;;;;;20.77;49.76;100861.00;5035133;28;45533;-78
2023/07/19 02:49:12;;;;;;;;;3.33;3.33;;;;;20.67;49.70;100857.47;5016499;27;45456;-77
2023/07/19 02:51:38;;;;;;;;;3.00;3.00;;;;;20.75;50.04;100871.13;5035238;28;45298;-78
2023/07/19 02:54:03;;;;;;;;;3.33;3.33;;;;;20.66;50.97;100875.53;5027730;27;45511;-78
2023/07/19 02:56:29;;;;;;;;;2.67;2.67;;;;;20.50;50.63;100849.09;4997202;28;45385;-77
2023/07/19 02:58:54;;;;;;;;;3.00;3.00;;;;;20.51;50.87;100850.81;5016899;28;45504;-77
2023/07/19 03:01:20;;;;;;;;;3.00;3.00;;;;;20.54;51.49;100879.38;5034741;28;46168;-76
2023/07/19 03:03:45;;;;;;;;;3.00;3.00;;;;;20.45;51.70;100880.25;5033962;28;45541;-77
2023/07/19 03:06:11;;;;;;;;;4.00;3.00;;;;;20.31;51.73;100862.56;5034700;28;45430;-75
2023/07/19 03:08:37;;;;;;;;;3.00;3.00;;;;;20.33;52.31;100883.06;5034540;28;45731;-79
2023/07/19 03:11:06;;;;;;;;;3.00;3.00;;;;;20.18;52.71;100872.78;5034203;28;46105;-78
2023/07/19 03:13:31;;;;;;;;;2.67;2.67;;;;;20.19;52.70;100898.84;5033117;28;45457;-76
2023/07/19 03:15:57;;;;;;;;;5.67;3.00;;;;;20.10;53.41;100888.88;5014941;28;45446;-76
2023/07/19 03:18:23;;;;;;;;;4.00;2.33;;;;;19.99;53.56;100897.94;5013684;28;45722;-75
2023/07/19 03:20:56;;;;;;;;;3.33;3.33;;;;;19.98;53.19;100893.53;5013928;28;45455;-77
2023/07/19 03:23:21;;;;;;;;;4.00;3.67;;;;;19.84;54.24;100894.78;5014787;28;45511;-78
2023/07/19 03:25:46;;;;;;;;;5.67;4.33;;;;;19.73;54.38;100881.41;5014293;28;45342;-77
2023/07/19 03:28:12;;;;;;;;;3.67;2.67;;;;;19.70;54.63;100895.16;5014853;28;45928;-76
2023/07/19 03:30:37;;;;;;;;;3.00;3.00;;;;;19.56;54.81;100887.47;5014151;28;45420;-77
2023/07/19 03:33:03;;;;;;;;;3.33;3.33;;;;;19.51;55.34;100889.66;5014465;28;45312;-75
2023/07/19 03:35:28;;;;;;;;;4.67;3.33;;;;;19.53;55.72;100909.25;4996852;28;45661;-75
2023/07/19 03:37:54;;;;;;;;;4.67;3.67;;;;;19.23;55.13;100864.28;5013444;27;45309;-76
2023/07/19 03:40:19;;;;;;;;;3.00;3.00;;;;;19.41;55.02;100901.28;5008162;28;46766;-77
2023/07/19 03:42:45;;;;;;;;;2.67;2.33;;;;;19.41;54.55;100903.13;5034563;28;45327;-77
2023/07/19 03:45:11;;;;;;;;;4.00;4.00;;;;;19.34;54.03;100905.50;5034499;28;50254;-77
2023/07/19 03:47:37;;;;;;;;;4.00;4.00;;;;;19.33;53.76;100903.78;5034873;28;45630;-76
2023/07/19 03:50:03;;;;;;;;;4.00;2.67;;;;;19.36;53.31;100924.25;5033106;28;45366;-74
2023/07/19 03:52:28;;;;;;;;;1.67;1.33;;;;;19.32;53.32;100928.19;5018930;28;45270;-77
2023/07/19 03:54:56;;;;;;;;;3.33;2.00;;;;;19.24;53.13;100928.84;5014458;28;45219;-79
2023/07/19 03:57:21;;;;;;;;;4.00;2.67;;;;;19.07;53.13;100910.59;5013286;28;45580;-78
2023/07/19 03:59:47;;;;;;;;;2.00;2.00;;;;;19.09;53.13;100925.66;5012106;27;46516;-75
2023/07/19 04:02:12;;;;;;;;;2.33;2.33;;;;;19.13;53.08;100945.09;5029699;28;45394;-76
2023/07/19 04:04:38;;;;;;;;;3.00;3.00;;;;;19.08;52.85;100940.13;5018933;28;45426;-77
2023/07/19 04:07:03;;;;;;;;;3.00;3.00;;;;;19.09;52.90;100940.97;5027438;28;46200;-77
2023/07/19 04:09:29;;;;;;;;;3.00;3.00;;;;;19.11;52.83;100939.00;5033578;28;45417;-76
2023/07/19 04:11:54;;;;;;;;;5.00;3.67;;;;;18.98;52.54;100917.63;5028144;28;45276;-78
2023/07/19 04:14:20;;;;;;;;;3.67;3.00;;;;;18.77;52.82;100912.25;5029046;28;45498;-75
2023/07/19 04:16:50;;;;;;;;;1.00;1.00;;;;;18.91;52.97;100937.19;5050028;28;45630;-76
2023/07/19 04:19:15;;;;;;;;;4.00;1.67;;;;;19.00;53.44;100957.94;5036734;28;45357;-76
2023/07/19 04:21:41;;;;;;;;;2.00;2.00;;;;;18.94;53.76;100958.47;5034274;28;45433;-76
2023/07/19 04:24:07;;;;;;;;;1.00;1.00;;;;;18.83;53.75;100946.75;5033946;28;45308;-78
2023/07/19 04:26:33;;;;;;;;;3.00;1.00;;;;;18.78;53.63;100940.91;5033013;28;45351;-76
2023/07/19 04:28:58;;;;;;;;;2.00;2.00;;;;;18.81;53.58;100937.94;5033461;28;45538;-77
2023/07/19 04:31:24;;;;;;;;;2.00;2.00;;;;;18.88;52.92;100950.88;5049381;28;45413;-77
2023/07/19 04:33:50;;;;;;;;;3.67;2.33;;;;;18.66;52.60;100920.41;5033494;27;45526;-78
2023/07/19 04:36:15;;;;;;;;;3.00;3.00;;;;;18.90;52.38;100957.03;5033291;28;45601;-81
2023/07/19 04:38:42;;;;;;;;;2.67;2.67;;;;;18.79;52.62;100956.09;5030840;27;46207;-79
2023/07/19 04:41:08;;;;;;;;;3.33;2.00;;;;;18.85;52.60;100952.88;5013801;28;45321;-76
2023/07/19 04:43:34;;;;;;;;;1.00;1.00;;;;;18.82;52.51;100961.22;5013690;28;45401;-78
2023/07/19 04:46:00;;;;;;;;;1.00;1.00;;;;;18.83;52.61;100965.63;5034254;28;45470;-78
2023/07/19 04:48:27;;;;;;;;;2.00;2.00;;;;;18.92;52.89;100963.13;5009893;28;46836;-77
2023/07/19 04:50:56;;;;;;;;;1.00;1.00;;;;;18.91;52.69;100966.81;5025549;28;45502;-77
2023/07/19 04:53:22;;;;;;;;;2.00;1.00;;;;;18.73;52.48;100935.03;5033282;28;45742;-77
2023/07/19 04:55:50;;;;;;;;;1.00;1.00;;;;;18.91;52.47;100956.03;5015697;28;45400;-78
2023/07/19 04:58:16;;;;;;;;;1.67;1.67;;;;;18.99;52.40;100975.94;5029476;27;47095;-78
2023/07/19 05:00:41;;;;;;;;;1.00;1.00;;;;;18.95;52.77;100979.03;5013101;28;45338;-80
2023/07/19 05:03:07;;;;;;;;;2.67;1.00;;;;;19.00;52.62;100968.72;5035177;28;45439;-77
2023/07/19 05:05:33;;;;;;;;;1.67;1.00;;;;;19.14;52.26;100968.38;5033714;28;45470;-76
2023/07/19 05:07:58;;;;;;;;;1.00;1.00;;;;;19.04;52.03;100954.00;5031790;28;45556;-75
2023/07/19 05:10:24;;;;;;;;;2.00;2.00;;;;;19.22;51.96;100963.19;5013409;28;45380;-78
2023/07/19 05:12:49;;;;;;;;;2.33;1.67;;;;;19.36;51.42;100975.47;5013645;28;45391;-75
2023/07/19 05:15:15;;;;;;;;;5.33;2.00;;;;;19.43;51.63;100974.81;5013936;28;45439;-77
2023/07/19 05:17:40;;;;;;;;;1.67;1.67;;;;;19.48;51.00;100973.56;5017381;28;46107;-76
2023/07/19 05:20:07;;;;;;;;;1.00;1.00;;;;;19.15;51.03;100910.81;5022455;28;45323;-76
2023/07/19 05:22:32;;;;;;;;;1.67;1.67;;;;;19.54;50.97;100973.03;5032947;28;45155;-77
2023/07/19 05:24:58;;;;;;;;;2.67;2.00;;;;;19.56;50.87;100973.78;5033484;28;45388;-77
2023/07/19 05:27:23;;;;;;;;;2.67;2.00;;;;;19.64;50.75;100976.66;5013775;28;46181;-76
2023/07/19 05:29:49;;;;;;;;;2.00;2.00;;;;;19.65;51.29;100981.06;5020432;28;45502;-77
2023/07/19 05:32:15;;;;;;;;;2.33;2.33;;;;;19.62;50.81;100962.44;5033329;28;45419;-78
2023/07/19 05:34:42;;;;;;;;;3.67;2.00;;;;;19.81;50.92;100978.72;5028302;28;45673;-77
2023/07/19 05:37:07;;;;;;;;;2.00;2.00;;;;;19.74;50.92;100958.66;5032064;28;46267;-78
2023/07/19 05:39:38;;;;;;;;;2.00;2.00;;;;;19.80;50.79;100959.97;5036855;28;45410;-78
2023/07/19 05:42:05;;;;;;;;;2.00;2.00;;;;;19.97;50.63;100972.81;5035590;28;45814;-77
2023/07/19 05:44:39;;;;;;;;;9.67;8.33;;;;;20.27;50.50;100991.66;5042189;28;45428;-76
2023/07/19 05:47:05;;;;;;;;;4.00;3.00;;;;;20.01;50.14;100925.66;5031838;28;45864;-76
2023/07/19 05:49:33;;;;;;;;;4.00;2.00;;;;;20.07;49.93;100926.94;5014362;28;45448;-75
2023/07/19 05:52:02;;;;;;;;;1.67;1.67;;;;;20.33;50.03;100952.44;5043203;28;45343;-75
2023/07/19 05:54:30;;;;;;;;;1.33;1.33;;;;;20.60;49.64;100982.34;5052846;27;45266;-76
2023/07/19 05:56:55;;;;;;;;;2.67;2.67;;;;;20.50;49.44;100972.53;5052265;28;45593;-76
2023/07/19 05:59:21;;;;;;;;;3.67;3.33;;;;;20.65;49.03;100990.03;5016686;27;47535;-76
2023/07/19 06:01:46;;;;;;;;;1.67;1.67;;;;;20.58;48.49;100978.94;5028353;28;45427;-80
2023/07/19 06:04:13;;;;;;;;;1.33;1.33;;;;;20.67;48.58;100998.00;5033693;28;45415;-80
2023/07/19 06:08:44;;;;;;;;;4.00;2.00;;;;;20.61;49.34;100986.75;5174138;27;45517;-78
2023/07/19 06:11:09;;;;;;;;;2.00;2.00;;;;;20.86;49.55;101003.44;5156073;27;45540;-76
2023/07/19 06:13:35;;;;;;;;;5.00;5.00;;;;;20.98;49.50;101004.13;5156394;27;45236;-79
2023/07/19 06:16:03;;;;;;;;;1.67;1.67;;;;;20.88;49.88;100986.06;5140842;27;45397;-76
2023/07/19 06:18:29;;;;;;;;;1.00;1.00;;;;;20.61;50.73;100961.59;5116111;27;45359;-81
2023/07/19 06:20:54;;;;;;;;;3.00;3.00;;;;;20.92;50.92;101011.81;5134825;27;45610;-84
2023/07/19 06:23:20;;;;;;;;;3.67;2.67;;;;;20.83;51.22;100998.28;5116961;27;45445;-84
2023/07/19 06:25:47;;;;;;;;;3.67;1.67;;;;;21.04;50.62;100985.47;5099359;27;45348;-79
2023/07/19 06:28:13;;;;;;;;;4.33;2.00;;;;;21.35;50.23;101004.25;5115949;27;45452;-80
2023/07/19 06:30:38;;;;;;;;;1.67;1.67;;;;;21.36;50.13;100973.50;5150699;27;45557;-77
2023/07/19 06:33:04;;;;;;;;;0.67;0.67;;;;;21.45;50.28;100969.91;5129580;27;45578;-86
2023/07/19 06:35:29;;;;;;;;;1.00;1.00;;;;;21.66;50.02;100975.97;5143773;27;45440;-83
2023/07/19 06:37:55;;;;;;;;;1.00;1.00;;;;;22.33;48.68;100971.22;5173800;27;46329;-85
2023/07/19 06:40:20;;;;;;;;;0.75;0.75;;;;;22.32;48.18;100973.09;5137591;27;45251;-86
2023/07/19 06:42:46;;;;;;;;;2.33;2.33;;;;;22.23;48.80;100995.66;5137130;27;45262;-83
2023/07/19 06:45:11;;;;;;;;;3.67;2.00;;;;;22.14;49.25;100998.47;5136663;27;45701;-84
2023/07/19 06:47:37;;;;;;;;;0.33;0.33;;;;;21.99;49.66;100985.34;5136241;27;46711;-84
2023/07/19 06:50:03;;;;;;;;;0.75;0.75;;;;;22.35;49.35;101005.28;5154249;27;45229;-82
2023/07/19 06:52:28;;;;;;;;;1.00;1.00;;;;;22.69;48.46;100991.09;5150313;27;45232;-83
2023/07/19 06:54:53;;;;;;;;;1.00;0.25;;;;;22.93;47.85;100966.94;5147729;27;45433;-85
2023/07/19 06:57:22;;;;;;;;;0.50;0.50;;;;;23.22;47.72;100996.50;5155683;27;46828;-82
2023/07/19 06:59:49;;;;;;;;;3.50;1.75;;;;;23.05;47.39;100966.66;5136029;27;45972;-84
2023/07/19 07:02:18;;;;;;;;;1.00;1.00;;;;;23.06;47.87;101000.97;5155593;27;45430;-82
2023/07/19 07:04:44;;;;;;;;;0.75;0.75;;;;;22.60;48.83;100973.03;5155276;27;45561;-84
2023/07/19 07:07:10;;;;;;;;;1.50;1.50;;;;;22.63;49.32;101005.25;5153748;27;45660;-81
2023/07/19 07:09:36;;;;;;;;;2.75;1.00;;;;;22.23;49.01;100941.47;5135981;27;45480;-84
2023/07/19 07:12:02;;;;;;;;;1.50;1.50;;;;;22.28;49.23;100966.28;5135994;27;45434;-82
2023/07/19 07:14:28;;;;;;;;;1.25;1.25;;;;;22.27;49.90;100997.09;5136751;27;45501;-87
2023/07/19 07:16:53;;;;;;;;;1.00;1.00;;;;;21.66;50.53;100921.84;5155650;27;46598;-84
2023/07/19 07:19:19;;;;;;;;;2.75;1.25;;;;;22.00;51.28;101010.59;5146656;27;45417;-84
2023/07/19 07:21:44;;;;;;;;;1.00;1.00;;;;;22.04;51.16;101001.19;5118719;27;45394;-85
2023/07/19 07:24:09;;;;;;;;;3.00;3.00;;;;;22.10;51.13;101006.00;5125132;27;45318;-85
2023/07/19 07:26:35;;;;;;;;;4.00;2.00;;;;;22.25;50.74;101018.03;5133380;27;47062;-86
2023/07/19 07:29:00;;;;;;;;;2.33;2.33;;;;;22.17;50.42;100968.34;5130806;27;45345;-83
2023/07/19 07:31:26;;;;;;;;;1.67;0.67;;;;;22.12;50.32;100970.63;5120441;27;45226;-83
2023/07/19 07:33:51;;;;;;;;;1.33;1.33;;;;;22.11;50.86;100979.78;5137038;27;46051;-85
2023/07/19 07:36:17;;;;;;;;;2.67;1.67;;;;;22.04;50.75;100971.38;5140982;27;46289;-81
2023/07/19 07:38:42;;;;;;;;;0.67;0.67;;;;;22.29;50.18;101003.22;5141575;27;45370;-85
2023/07/19 07:41:11;;;;;;;;;4.00;3.00;;;;;22.07;50.66;100947.59;5122417;27;45540;-80
2023/07/19 07:43:37;;;;;;;;;1.00;1.00;;;;;22.37;50.29;100997.88;5124092;27;45427;-85
2023/07/19 07:46:02;;;;;;;;;0.67;0.67;;;;;22.45;49.68;100997.13;5141877;27;45400;-83
2023/07/19 07:48:28;;;;;;;;;1.00;1.00;;;;;22.28;49.55;100954.59;5118991;27;45455;-82
2023/07/19 07:50:53;;;;;;;;;1.33;1.33;;;;;22.71;48.60;101004.50;5126702;27;45479;-81
2023/07/19 07:53:20;;;;;;;;;2.67;2.33;;;;;22.74;48.01;100999.59;5118919;27;45651;-86
2023/07/19 07:55:45;;;;;;;;;1.75;0.75;;;;;23.00;47.10;101015.13;5122433;27;47012;-84
2023/07/19 07:58:11;;;;;;;;;3.00;1.00;;;;;22.88;46.46;101014.50;5121802;27;45405;-84
2023/07/19 08:00:37;;;;;;;;;2.25;0.75;;;;;22.67;46.57;101012.94;5141170;27;45360;-84
2023/07/19 08:03:02;;;;;;;;;1.00;1.00;;;;;22.70;46.61;101009.06;5122457;27;45549;-82
2023/07/19 08:05:29;;;;;;;;;0.75;0.75;;;;;22.75;46.32;100995.03;5140383;27;45299;-82
2023/07/19 08:07:54;;;;;;;;;1.00;1.00;;;;;22.89;45.63;100962.81;5140591;27;45364;-85
2023/07/19 08:10:20;;;;;;;;;2.25;1.75;;;;;23.00;45.59;101009.69;5118300;27;45364;-85
2023/07/19 08:12:45;;;;;;;;;1.50;1.50;;;;;22.74;45.69;100958.94;5119463;27;45577;-83
2023/07/19 08:15:11;;;;;;;;;2.00;2.00;;;;;23.20;45.53;101008.53;5135270;27;47494;-83
2023/07/19 08:17:37;;;;;;;;;5.75;1.75;;;;;23.10;45.47;100973.34;5139775;27;45398;-87
2023/07/19 08:20:08;;;;;;;;;6.75;2.00;;;;;23.44;44.92;100987.00;5121379;27;45511;-86
2023/07/19 08:22:35;;;;;;;;;1.50;1.50;;;;;23.55;45.06;101000.28;5123786;27;45392;-83
2023/07/19 08:25:00;;;;;;;;;1.00;1.00;;;;;23.52;44.95;101007.91;5119724;27;45361;-84
2023/07/19 08:27:26;;;;;;;;;1.25;1.25;;;;;22.84;45.55;100938.03;5120230;27;45496;-83
2023/07/19 08:29:53;;;;;;;;;2.75;1.50;;;;;23.31;45.85;101010.13;5119065;27;45323;-84
2023/07/19 08:32:19;;;;;;;;;2.25;1.00;;;;;22.95;46.37;100992.03;5102821;27;45440;-81
2023/07/19 08:34:45;;;;;;;;;2.00;1.00;;;;;22.82;46.03;100979.84;5083142;27;48720;-83
2023/07/19 08:37:10;;;;;;;;;1.75;1.75;;;;;22.83;46.36;101004.13;5100144;27;45462;-81
2023/07/19 08:39:36;;;;;;;;;2.00;1.00;;;;;22.49;46.37;100962.41;5100078;27;45445;-82
2023/07/19 08:42:03;;;;;;;;;1.00;1.00;;;;;22.61;46.05;101009.97;5100213;27;45386;-83
2023/07/19 08:44:28;;;;;;;;;1.00;1.00;;;;;22.60;46.04;100986.59;5118917;27;46182;-83
2023/07/19 08:46:55;;;;;;;;;7.25;1.25;;;;;22.80;45.94;101007.13;5100054;27;45442;-83
2023/07/19 08:49:20;;;;;;;;;5.75;2.75;;;;;22.53;46.72;101012.63;5136905;27;45206;-84
2023/07/19 08:51:47;;;;;;;;;1.50;1.50;;;;;22.76;46.21;101000.28;5140447;27;45440;-83
2023/07/19 08:54:13;;;;;;;;;1.75;1.75;;;;;23.02;45.14;100964.28;5139568;27;45484;-84
2023/07/19 08:56:40;;;;;;;;;1.75;1.75;;;;;23.20;44.87;100957.81;5120846;27;45416;-84
2023/07/19 08:59:06;;;;;;;;;2.00;2.00;;;;;23.58;44.54;101010.03;5139802;27;45247;-84
2023/07/19 09:01:32;;;;;;;;;1.25;1.25;;;;;23.70;43.84;100997.00;5122123;27;45657;-83
2023/07/19 09:03:58;;;;;;;;;1.75;1.75;;;;;23.43;42.96;100965.41;5140562;27;45606;-82
2023/07/19 09:06:25;;;;;;;;;3.00;1.25;;;;;23.23;43.09;100972.94;5138098;27;45409;-83
2023/07/19 09:08:51;;;;;;;;;0.75;0.75;;;;;23.39;42.61;100983.88;5141015;27;45399;-86
2023/07/19 09:11:21;;;;;;;;;0.75;0.75;;;;;23.42;43.08;101005.28;5142335;27;45454;-87
2023/07/19 09:13:55;;;;;;;;;1.75;1.75;;;;;23.51;42.21;100990.75;5099723;27;48199;-83
2023/07/19 09:16:29;;;;;;;;;0.75;0.75;;;;;23.62;42.29;100994.25;5119431;27;45402;-82
2023/07/19 09:18:57;;;;;;;;;2.00;2.00;;;;;23.84;41.56;100999.13;5122560;27;45326;-77
2023/07/19 09:21:46;;;;;;;;;1.50;1.50;;;;;24.01;42.02;100994.63;5129173;27;45411;-78
2023/07/19 09:24:12;;;;;;;;;2.75;2.75;;;;;23.98;41.41;100990.38;5107551;27;47525;-75
2023/07/19 09:26:58;;;;;;;;;1.00;1.00;;;;;23.79;41.45;100994.16;5137597;27;45489;-80
2023/07/19 09:29:29;;;;;;;;;3.00;1.75;;;;;23.92;41.88;100993.72;5117755;27;45547;-78
2023/07/19 09:31:57;;;;;;;;;2.00;2.00;;;;;23.87;41.53;100993.38;5127133;27;45501;-78
2023/07/19 09:34:25;;;;;;;;;1.50;1.50;;;;;24.02;41.62;100993.59;5135689;27;45434;-80
2023/07/19 09:36:51;;;;;;;;;2.00;1.75;;;;;23.85;40.94;100967.41;5125552;27;45419;-79
2023/07/19 09:39:19;;;;;;;;;3.25;3.00;;;;;23.69;40.42;100979.00;5128480;27;45323;-76
2023/07/19 09:41:47;;;;;;;;;3.25;2.00;;;;;23.60;40.56;100993.56;5111770;27;45381;-78
2023/07/19 09:44:18;;;;;;;;;2.50;2.50;;;;;23.22;41.58;100990.22;5137622;27;46052;-77
2023/07/19 09:46:45;;;;;;;;;1.75;1.75;;;;;22.99;42.02;100953.75;5137695;27;45419;-80
2023/07/19 09:49:12;;;;;;;;;1.50;1.25;;;;;23.10;41.55;100972.50;5132493;27;45449;-80
2023/07/19 09:51:42;;;;;;;;;2.00;2.00;;;;;23.18;41.94;100964.44;5130085;27;45554;-76
2023/07/19 09:54:10;;;;;;;;;7.50;2.75;;;;;23.74;41.08;100982.09;5134298;27;47134;-80
2023/07/19 09:56:36;;;;;;;;;2.00;1.00;;;;;23.78;41.04;100950.88;5129406;27;45395;-80
2023/07/19 09:59:04;;;;;;;;;2.00;2.00;;;;;23.70;40.90;100927.28;5119781;27;45523;-77
2023/07/19 10:01:30;;;;;;;;;5.00;2.00;;;;;24.17;40.68;100988.41;5119105;27;45553;-82
2023/07/19 10:03:59;;;;;;;;;3.50;1.00;;;;;24.29;40.99;101001.53;5118690;27;47048;-79
2023/07/19 10:06:29;;;;;;;;;1.20;0.80;;;;;24.18;40.79;101000.97;5136742;27;45554;-79
2023/07/19 10:09:23;;;;;;;;;2.25;2.00;;;;;24.11;40.93;100996.19;5126262;27;45429;-77
2023/07/19 10:11:51;;;;;;;;;3.00;3.00;;;;;24.13;40.51;100996.88;5137448;27;45579;-81
2023/07/19 10:14:26;;;;;;;;;3.25;2.50;;;;;24.22;39.92;101010.47;5124502;27;45497;-82
2023/07/19 10:16:58;;;;;;;;;2.00;2.00;;;;;24.02;39.62;101004.47;5137221;27;45450;-80
2023/07/19 10:19:24;;;;;;;;;4.25;1.75;;;;;24.10;39.79;100996.38;5118771;27;45414;-79
2023/07/19 10:22:07;;;;;;;;;2.00;2.00;;;;;24.36;39.29;100993.59;5108308;27;45340;-79
2023/07/19 10:24:35;;;;;;;;;3.75;3.75;;;;;24.58;38.73;100984.78;5137226;27;46040;-79
2023/07/19 10:27:04;;;;;;;;;3.00;2.50;;;;;24.62;38.37;100986.19;5136244;27;45433;-78
2023/07/19 10:29:42;;;;;;;;;4.25;3.00;;;;;24.92;38.45;100995.56;5116594;27;45443;-81
2023/07/19 10:32:08;;;;;;;;;3.50;2.50;;;;;25.18;38.22;100992.69;5133077;27;45419;-77
2023/07/19 10:34:34;;;;;;;;;4.50;3.00;;;;;25.00;37.09;100937.53;5118600;27;48258;-78
2023/07/19 10:37:02;;;;;;;;;2.00;2.00;;;;;25.27;36.89;100979.94;5110474;27;45435;-79
2023/07/19 10:39:28;;;;;;;;;4.00;2.50;;;;;25.24;36.74;100940.28;5105265;27;46971;-78
2023/07/19 10:41:53;;;;;;;;;3.00;2.00;;;;;25.41;36.46;100967.50;5135767;27;45482;-77
2023/07/19 10:44:21;;;;;;;;;3.00;2.25;;;;;25.51;36.76;100963.53;5122156;27;46491;-79
2023/07/19 10:46:46;;;;;;;;;5.00;5.00;;;;;25.86;36.42;100994.13;5136541;27;45445;-78
2023/07/19 10:49:13;;;;;;;;;1.25;1.25;;;;;25.75;35.80;100962.66;5136750;27;45437;-79
2023/07/19 10:51:38;;;;;;;;;2.00;2.00;;;;;25.82;35.41;100969.09;5136815;27;45344;-78
2023/07/19 10:54:06;;;;;;;;;3.00;3.00;;;;;26.23;35.92;100998.06;5119535;27;47552;-78
2023/07/19 10:56:32;;;;;;;;;2.00;2.00;;;;;25.98;35.00;100931.91;5140542;27;45264;-78
2023/07/19 10:59:01;;;;;;;;;3.00;3.00;;;;;26.36;35.43;100977.41;5140386;27;45277;-78
2023/07/19 11:01:29;;;;;;;;;3.75;2.50;;;;;26.17;35.22;100955.97;5118370;27;45623;-78
2023/07/19 11:04:00;;;;;;;;;4.50;3.25;;;;;26.23;35.20;100987.16;5140197;27;46299;-77
2023/07/19 11:06:25;;;;;;;;;1.60;1.60;;;;;26.19;35.53;100992.13;5096613;27;45454;-79
2023/07/19 11:08:51;;;;;;;;;4.50;4.25;;;;;26.00;35.76;100960.69;5135207;27;45446;-77
2023/07/19 11:11:17;;;;;;;;;3.00;3.00;;;;;26.23;35.28;100973.53;5120374;27;45495;-78
2023/07/19 11:13:44;;;;;;;;;2.00;2.00;;;;;26.20;35.41;100987.50;5119665;27;45398;-79
2023/07/19 11:16:10;;;;;;;;;3.00;3.00;;;;;26.25;35.55;100994.13;5119868;27;45423;-78
2023/07/19 11:18:38;;;;;;;;;3.00;3.00;;;;;26.25;35.50;100983.22;5120232;27;45368;-78
2023/07/19 11:21:04;;;;;;;;;2.00;2.00;;;;;26.20;35.63;100972.00;5101936;27;45567;-78
2023/07/19 11:23:30;;;;;;;;;4.00;2.75;;;;;26.50;35.12;100999.47;5124303;27;45232;-79